Time;durP1;ratioP1;P1;durP2;ratioP2;P2;SDS_P1;SDS_P2;PMS_P1;PMS_P2;Temp;Humidity;BMP_temperature;BMP_pressure;BME280_temperature;BME280_humidity;BME280_pressure;Samples;Min_cycle;Max_cycle;Signal;HPM_P1;HPM_P2
2023/04/25 00:01:35;;;;;;;;;;;;;;;11.89;99.32;96890.00;10361324;28;20068;-51
2023/04/25 00:06:35;;;;;;;3.60;2.55;;;;;;;11.95;98.45;96876.91;10361243;28;20441;-49
2023/04/25 00:11:34;;;;;;;2.92;2.42;;;;;;;11.98;96.62;96881.16;10360791;28;20573;-50
2023/04/25 00:16:34;;;;;;;;;;;;;;;11.96;96.10;96877.75;10361332;28;20551;-51
2023/04/25 00:21:33;;;;;;;3.28;2.85;;;;;;;11.97;95.89;96877.72;10361021;28;20024;-50
2023/04/25 00:26:34;;;;;;;3.55;2.85;;;;;;;11.93;95.07;96870.88;10359975;28;20033;-49
2023/04/25 00:31:33;;;;;;;3.60;2.72;;;;;;;11.97;92.93;96875.13;10360691;28;20136;-51
2023/04/25 00:36:32;;;;;;;;;;;;;;;11.96;92.59;96849.16;10360812;28;20017;-51
2023/04/25 00:41:31;;;;;;;4.03;3.40;;;;;;;11.94;92.12;96837.91;10360614;28;19921;-51
2023/04/25 00:46:30;;;;;;;;;;;;;;;11.81;91.79;96814.78;10363910;28;20048;-54
2023/04/25 00:51:30;;;;;;;3.78;2.90;;;;;;;11.74;90.56;96802.81;10362895;28;19975;-49
2023/04/25 00:56:30;;;;;;;3.13;2.83;;;;;;;11.70;89.87;96769.97;10362940;28;20065;-50
2023/04/25 01:01:29;;;;;;;4.63;2.70;;;;;;;11.65;89.00;96762.25;10363502;28;20068;-51
2023/04/25 01:06:28;;;;;;;3.80;2.50;;;;;;;11.64;87.79;96754.50;10362542;28;20074;-49
2023/04/25 01:11:27;;;;;;;3.50;2.67;;;;;;;11.75;88.48;96752.53;10364222;28;20033;-49
2023/04/25 01:16:26;;;;;;;5.20;2.65;;;;;;;11.85;86.23;96755.78;10371878;28;20538;-50
2023/04/25 01:21:27;;;;;;;;;;;;;;;11.94;86.37;96762.53;10370830;28;20069;-50
2023/04/25 01:26:27;;;;;;;3.47;2.40;;;;;;;12.01;87.07;96769.28;10371188;28;20389;-51
2023/04/25 01:31:26;;;;;;;;;;;;;;;12.05;85.26;96781.34;10370777;28;20507;-51
2023/04/25 01:36:26;;;;;;;2.70;2.10;;;;;;;11.97;83.19;96762.44;10371004;28;19951;-48
2023/04/25 01:41:26;;;;;;;3.78;2.30;;;;;;;12.10;82.59;96784.69;10369017;28;20071;-49
2023/04/25 01:46:24;;;;;;;;;;;;;;;12.26;84.13;96780.84;10366903;28;20163;-50
2023/04/25 01:51:23;;;;;;;2.40;2.20;;;;;;;12.27;82.91;96776.50;10365960;28;19943;-49
2023/04/25 01:56:22;;;;;;;3.58;2.60;;;;;;;12.41;84.24;96765.78;10366620;28;20453;-51
2023/04/25 02:01:21;;;;;;;4.43;2.88;;;;;;;12.33;83.66;96765.97;10365807;28;20029;-50
2023/04/25 02:06:20;;;;;;;3.63;2.80;;;;;;;12.20;83.05;96749.75;10365068;28;20422;-50
2023/04/25 02:11:19;;;;;;;7.10;4.28;;;;;;;11.97;82.15;96754.63;10365286;28;20051;-51
2023/04/25 02:16:18;;;;;;;5.30;3.58;;;;;;;11.87;82.97;96752.25;10365522;28;20051;-49
2023/04/25 02:21:17;;;;;;;5.03;3.20;;;;;;;11.87;82.27;96747.03;10364979;28;20100;-50
2023/04/25 02:26:16;;;;;;;;;;;;;;;11.91;82.73;96747.00;10365711;28;20124;-50
2023/04/25 02:31:15;;;;;;;7.68;4.13;;;;;;;11.83;82.74;96740.22;10364013;28;20011;-50
2023/04/25 02:36:14;;;;;;;5.90;3.97;;;;;;;11.07;83.07;96620.63;10365275;28;20068;-49
2023/04/25 02:41:13;;;;;;;5.30;3.75;;;;;;;11.85;82.74;96748.84;10364525;28;20503;-54
2023/04/25 02:46:12;;;;;;;5.30;3.83;;;;;;;11.89;82.01;96745.28;10364105;28;20112;-52
2023/04/25 02:51:12;;;;;;;4.75;3.67;;;;;;;11.81;83.07;96742.00;10364118;28;20537;-51
2023/04/25 02:56:10;;;;;;;5.53;3.90;;;;;;;11.73;82.75;96737.84;10363931;28;20510;-52
2023/04/25 03:01:09;;;;;;;4.72;3.70;;;;;;;11.41;82.60;96742.84;10363390;28;20021;-51
2023/04/25 03:06:08;;;;;;;3.70;3.10;;;;;;;11.45;81.97;96728.94;10362175;28;20502;-51
2023/04/25 03:11:07;;;;;;;4.50;3.28;;;;;;;11.39;81.05;96736.00;10362799;28;20525;-50
2023/04/25 03:16:06;;;;;;;5.22;3.55;;;;;;;11.18;82.29;96724.28;10363522;28;20401;-51
2023/04/25 03:21:05;;;;;;;5.47;4.00;;;;;;;11.26;82.49;96730.16;10362656;28;20024;-51
2023/04/25 03:26:04;;;;;;;;;;;;;;;11.13;82.68;96726.13;10363442;28;20120;-52
2023/04/25 03:31:03;;;;;;;7.15;4.57;;;;;;;11.11;83.20;96730.50;10362442;28;19940;-50
2023/04/25 03:36:02;;;;;;;;;;;;;;;11.11;83.76;96738.28;10361822;28;20053;-51
2023/04/25 03:41:02;;;;;;;8.05;5.28;;;;;;;11.00;84.14;96731.53;10363239;28;19935;-50
2023/04/25 03:46:01;;;;;;;5.97;4.85;;;;;;;10.96;85.25;96740.28;10365194;28;20052;-50
2023/04/25 03:51:00;;;;;;;;;;;;;;;10.95;84.63;96743.75;10365295;28;20080;-51
2023/04/25 03:55:59;;;;;;;6.35;5.25;;;;;;;10.89;85.33;96732.63;10364134;28;19912;-50
2023/04/25 04:00:57;;;;;;;6.15;4.28;;;;;;;10.94;84.84;96741.16;10363622;28;20051;-49
2023/04/25 04:05:56;;;;;;;5.43;4.30;;;;;;;10.75;85.99;96745.81;10364118;28;20047;-51
2023/04/25 04:10:59;;;;;;;8.00;4.68;;;;;;;10.55;86.05;96709.88;10364431;28;20417;-51
2023/04/25 04:15:58;;;;;;;10.60;5.30;;;;;;;10.84;86.70;96740.47;10363228;28;20071;-50
2023/04/25 04:20:58;;;;;;;7.95;5.68;;;;;;;10.78;87.55;96725.88;10363508;28;20482;-50
2023/04/25 04:25:57;;;;;;;12.18;7.95;;;;;;;11.09;86.77;96743.50;10363135;28;20446;-51
2023/04/25 04:30:56;;;;;;;9.13;5.65;;;;;;;11.16;86.54;96749.44;10363980;28;20498;-50
2023/04/25 04:35:55;;;;;;;9.90;7.22;;;;;;;11.38;86.58;96757.63;10363771;28;20115;-50
2023/04/25 04:40:54;;;;;;;13.55;9.27;;;;;;;11.67;86.35;96759.66;10361534;28;20076;-52
2023/04/25 04:45:56;;;;;;;;;;;;;;;11.77;83.95;96766.34;10359993;28;20049;-51
2023/04/25 04:50:54;;;;;;;10.93;8.52;;;;;;;11.83;85.31;96765.34;10360098;28;19968;-51
2023/04/25 04:55:54;;;;;;;15.70;10.43;;;;;;;12.01;84.90;96745.88;10359484;28;20147;-50
2023/04/25 05:00:53;;;;;;;14.23;10.90;;;;;;;12.30;83.76;96759.09;10359284;28;20057;-50
2023/04/25 05:05:51;;;;;;;;;;;;;;;12.47;83.56;96752.66;10360062;28;20127;-49
2023/04/25 05:10:50;;;;;;;13.43;9.93;;;;;;;12.76;82.51;96744.09;10358246;28;20014;-50
2023/04/25 05:15:49;;;;;;;;;;;;;;;13.01;82.40;96746.06;10360198;28;20029;-49
2023/04/25 05:20:48;;;;;;;10.20;7.22;;;;;;;13.28;80.48;96739.22;10359193;28;20365;-51
2023/04/25 05:25:47;;;;;;;;;;;;;;;13.69;81.18;96738.06;10359733;28;20474;-51
2023/04/25 05:30:46;;;;;;;9.98;7.18;;;;;;;14.17;77.01;96741.81;10358915;28;19952;-51
2023/04/25 05:35:44;;;;;;;;;;;;;;;14.30;74.57;96745.75;10360225;28;20399;-51
2023/04/25 05:40:44;;;;;;;11.20;6.55;;;;;;;14.40;73.11;96747.19;10358142;28;19940;-51
2023/04/25 05:45:42;;;;;;;8.35;6.15;;;;;;;14.20;74.90;96750.41;10358771;28;20059;-51
2023/04/25 05:50:41;;;;;;;;;;;;;;;14.05;73.67;96742.22;10359181;28;20033;-51
2023/04/25 05:55:40;;;;;;;18.40;8.20;;;;;;;13.84;74.82;96734.13;10358661;28;20013;-51
2023/04/25 06:00:41;;;;;;;;;;;;;;;13.67;74.92;96741.63;10364602;28;20033;-50
2023/04/25 06:05:41;;;;;;;12.45;8.95;;;;;;;14.10;75.87;96737.69;10363103;28;20020;-49
2023/04/25 06:10:40;;;;;;;11.38;8.00;;;;;;;14.57;72.76;96724.88;10365350;28;20609;-52
2023/04/25 06:15:39;;;;;;;;;;;;;;;14.77;70.86;96734.69;10365783;28;20055;-51
2023/04/25 06:20:38;;;;;;;11.43;6.70;;;;;;;14.85;69.00;96711.78;10364876;28;19916;-50
2023/04/25 06:25:37;;;;;;;;;;;;;;;15.22;67.84;96749.66;10366282;28;20555;-51
2023/04/25 06:30:36;;;;;;;11.80;7.13;;;;;;;15.47;69.20;96741.78;10363128;28;20013;-52
2023/04/25 06:35:35;;;;;;;7.10;5.47;;;;;;;16.13;68.72;96757.63;10364224;28;20041;-51
2023/04/25 06:40:34;;;;;;;;;;;;;;;16.59;68.74;96739.22;10362135;28;20021;-51
2023/04/25 06:45:33;;;;;;;12.67;7.80;;;;;;;17.10;66.75;96735.34;10361444;28;19913;-52
2023/04/25 06:50:32;;;;;;;8.30;5.85;;;;;;;17.34;61.59;96744.75;10359359;28;20101;-53
2023/04/25 06:55:32;;;;;;;8.52;4.90;;;;;;;17.60;56.96;96747.97;10360440;28;20495;-52
2023/04/25 07:00:31;;;;;;;5.07;3.70;;;;;;;17.46;57.80;96701.38;10353804;28;20522;-53
2023/04/25 07:05:30;;;;;;;8.05;3.90;;;;;;;17.58;54.82;96746.34;10361621;28;20511;-52
2023/04/25 07:10:30;;;;;;;6.85;3.60;;;;;;;17.81;55.36;96751.44;10354201;28;20427;-52
2023/04/25 07:15:29;;;;;;;6.28;3.95;;;;;;;18.13;52.83;96744.69;10357724;28;20124;-52
2023/04/25 07:20:28;;;;;;;4.35;3.53;;;;;;;18.48;51.06;96705.34;10357995;28;20129;-52
2023/04/25 07:25:26;;;;;;;16.90;8.27;;;;;;;18.71;48.73;96730.50;10363025;28;20037;-52
2023/04/25 07:30:25;;;;;;;4.60;2.92;;;;;;;18.69;46.52;96731.50;10360958;28;20441;-52
2023/04/25 07:35:24;;;;;;;5.60;3.05;;;;;;;18.57;48.25;96739.06;10358897;28;20043;-53
2023/04/25 07:40:23;;;;;;;7.15;3.55;;;;;;;18.29;48.61;96747.44;10358729;28;20805;-52
2023/04/25 07:45:23;;;;;;;7.47;4.10;;;;;;;17.71;48.45;96743.09;10357981;28;20484;-52
2023/04/25 07:50:22;;;;;;;4.32;3.50;;;;;;;17.34;51.46;96734.25;10358429;28;20132;-52
2023/04/25 07:55:21;;;;;;;14.50;5.80;;;;;;;17.55;49.42;96736.84;10359711;28;20033;-51
2023/04/25 08:00:20;;;;;;;13.23;5.43;;;;;;;17.91;51.48;96743.97;10356147;28;20639;-52
2023/04/25 08:05:19;;;;;;;13.10;5.35;;;;;;;18.27;47.60;96730.88;10353364;28;20541;-50
2023/04/25 08:10:18;;;;;;;7.82;4.40;;;;;;;18.63;46.91;96747.56;10358973;28;20164;-52
2023/04/25 08:15:17;;;;;;;6.13;3.28;;;;;;;18.48;44.90;96759.66;10363462;28;20041;-52
2023/04/25 08:20:16;;;;;;;3.92;3.53;;;;;;;18.40;47.33;96726.72;10359508;28;20032;-52
2023/04/25 08:25:15;;;;;;;5.05;3.95;;;;;;;18.74;45.28;96742.66;10357377;28;20154;-52
2023/04/25 08:30:14;;;;;;;3.55;2.72;;;;;;;18.03;45.39;96747.78;10360208;28;20037;-52
2023/04/25 08:35:13;;;;;;;7.50;4.00;;;;;;;17.58;48.17;96747.19;10359496;28;20119;-52
2023/04/25 08:40:14;;;;;;;5.20;3.40;;;;;;;17.10;48.31;96709.13;10360332;28;20045;-52
2023/04/25 08:45:13;;;;;;;3.97;3.05;;;;;;;17.26;48.30;96744.25;10361024;28;20060;-52
2023/04/25 08:50:12;;;;;;;4.43;3.35;;;;;;;17.31;49.05;96723.91;10359710;28;20041;-52
2023/04/25 08:55:12;;;;;;;2.60;2.38;;;;;;;17.34;47.62;96736.88;10362387;28;20044;-53
2023/04/25 09:00:13;;;;;;;5.07;3.08;;;;;;;17.40;48.44;96750.63;10361589;28;20056;-54
2023/04/25 09:05:13;;;;;;;3.85;2.55;;;;;;;17.75;47.03;96749.03;10361573;28;20061;-53
2023/04/25 09:10:12;;;;;;;5.80;3.00;;;;;;;18.17;45.50;96732.22;10362713;28;20107;-53
2023/04/25 09:15:12;;;;;;;7.85;4.32;;;;;;;18.49;44.79;96733.31;10362619;28;20128;-55
2023/04/25 09:20:13;;;;;;;5.88;4.00;;;;;;;18.80;44.61;96718.66;10360691;28;20052;-52
2023/04/25 09:25:14;;;;;;;4.03;2.45;;;;;;;18.71;42.20;96708.63;10361489;28;20495;-52
2023/04/25 09:30:16;;;;;;;4.28;3.05;;;;;;;18.91;43.61;96712.88;10360804;28;20417;-52
2023/04/25 09:35:26;;;;;;;8.05;3.72;;;;;;;19.01;44.19;96691.28;10366803;28;20068;-53
2023/04/25 09:40:25;;;;;;;7.28;3.53;;;;;;;19.21;43.35;96713.06;10368967;28;20053;-53
2023/04/25 09:45:24;;;;;;;7.82;4.53;;;;;;;19.38;43.99;96715.66;10365599;28;20044;-53
2023/04/25 09:50:24;;;;;;;7.63;3.90;;;;;;;19.62;43.39;96717.94;10365474;28;20048;-53
2023/04/25 09:55:24;;;;;;;3.65;2.80;;;;;;;19.88;42.48;96713.88;10363696;28;20589;-54
2023/04/25 10:00:24;;;;;;;4.28;2.60;;;;;;;19.87;43.16;96706.94;10366604;28;20075;-54
2023/04/25 10:05:24;;;;;;;3.50;1.80;;;;;;;20.06;42.42;96696.22;10365578;28;20060;-54
2023/04/25 10:10:27;;;;;;;5.68;2.22;;;;;;;20.04;43.49;96669.13;10365031;28;20263;-54
2023/04/25 10:15:26;;;;;;;5.68;2.40;;;;;;;20.04;43.97;96701.56;10361982;28;20083;-53
2023/04/25 10:20:26;;;;;;;4.72;2.55;;;;;;;19.78;44.87;96697.75;10357919;28;20124;-53
2023/04/25 10:25:25;;;;;;;4.25;3.03;;;;;;;19.44;44.83;96702.19;10363755;28;20463;-52
2023/04/25 10:30:24;;;;;;;5.70;3.47;;;;;;;19.00;45.97;96684.34;10362047;28;20479;-52
2023/04/25 10:35:30;;;;;;;5.97;3.40;;;;;;;18.90;46.72;96662.09;10363295;28;20068;-52
2023/04/25 10:40:29;;;;;;;4.93;2.92;;;;;;;19.08;45.92;96654.16;10358122;28;20143;-53
2023/04/25 10:45:28;;;;;;;5.68;2.50;;;;;;;19.35;43.51;96638.69;10364964;28;20140;-52
2023/04/25 10:50:37;;;;;;;2.30;2.10;;;;;;;19.77;43.05;96621.50;10362243;28;20062;-53
2023/04/25 10:55:54;;;;;;;2.78;2.13;;;;;;;20.10;42.40;96604.75;10367183;28;20482;-53
2023/04/25 11:00:53;;;;;;;3.92;2.47;;;;;;;20.34;41.68;96631.44;10362339;28;20095;-53
2023/04/25 11:05:53;;;;;;;4.13;2.10;;;;;;;19.88;40.04;96645.44;10362608;28;20151;-53
2023/04/25 11:10:52;;;;;;;3.40;1.70;;;;;;;19.09;46.80;96687.41;10365069;28;20140;-52
2023/04/25 11:15:51;;;;;;;4.25;2.30;;;;;;;18.07;53.09;96666.19;10368523;28;20056;-52
2023/04/25 11:20:50;;;;;;;4.80;2.33;;;;;;;17.67;56.91;96688.22;10363245;28;20111;-52
2023/04/25 11:25:49;;;;;;;2.88;2.38;;;;;;;17.43;58.49;96704.16;10365245;28;20021;-52
2023/04/25 11:30:52;;;;;;;6.35;3.38;;;;;;;17.46;60.03;96669.06;10365734;28;20116;-53
2023/04/25 11:35:57;;;;;;;6.35;3.13;;;;;;;18.07;59.07;96702.09;10366178;28;20068;-52
2023/04/25 11:40:56;;;;;;;5.38;3.88;;;;;;;18.28;56.26;96693.19;10362510;28;20108;-52
2023/04/25 11:45:55;;;;;;;4.45;2.67;;;;;;;18.57;54.69;96676.00;10369955;28;20548;-51
2023/04/25 11:50:55;;;;;;;2.95;2.35;;;;;;;19.02;51.65;96666.69;10367086;28;20585;-52
2023/04/25 11:55:54;;;;;;;2.63;1.90;;;;;;;19.21;46.78;96639.44;10361722;28;20064;-51
2023/04/25 12:00:53;;;;;;;2.42;1.92;;;;;;;19.31;47.55;96650.31;10359796;28;20116;-52
2023/04/25 12:05:52;;;;;;;2.53;2.05;;;;;;;19.66;50.25;96630.00;10353193;28;20116;-52
2023/04/25 12:10:51;;;;;;;3.35;2.35;;;;;;;20.18;46.69;96599.84;10365376;28;20123;-53
2023/04/25 12:15:50;;;;;;;2.80;1.80;;;;;;;20.39;46.95;96589.84;10362600;28;20049;-53
2023/04/25 12:20:49;;;;;;;2.58;1.42;;;;;;;20.42;44.68;96587.94;10359459;28;20140;-52
2023/04/25 12:25:48;;;;;;;3.03;1.60;;;;;;;20.49;42.69;96593.66;10364632;28;20063;-53
2023/04/25 12:31:04;;;;;;;3.42;1.00;;;;;;;20.69;41.10;96600.38;10358119;28;20111;-53
2023/04/25 12:36:08;;;;;;;1.40;1.30;;;;;;;21.10;41.42;96600.50;10365172;28;20071;-53
2023/04/25 12:41:08;;;;;;;2.15;1.20;;;;;;;20.76;38.64;96603.50;10364776;28;20179;-53
2023/04/25 12:46:07;;;;;;;7.07;3.70;;;;;;;19.86;40.22;96628.88;10361718;28;20052;-52
2023/04/25 12:51:06;;;;;;;4.50;2.10;;;;;;;18.07;46.72;96646.97;10364518;28;20131;-52
2023/04/25 12:56:06;;;;;;;3.90;1.50;;;;;;;16.79;48.74;96642.28;10363575;28;20087;-51
2023/04/25 13:01:05;;;;;;;4.03;1.67;;;;;;;16.28;50.60;96664.56;10362299;28;20068;-52
2023/04/25 13:06:05;;;;;;;5.72;1.50;;;;;;;15.94;53.39;96678.97;10364554;28;20091;-51
2023/04/25 13:11:06;;;;;;;2.28;1.30;;;;;;;15.39;54.70;96705.47;10367056;28;20466;-51
2023/04/25 13:16:05;;;;;;;2.47;1.50;;;;;;;14.80;55.88;96716.28;10365411;28;20490;-51
2023/04/25 13:21:04;;;;;;;3.28;1.90;;;;;;;14.45;59.97;96748.75;10366717;28;20510;-51
2023/04/25 13:26:03;;;;;;;2.88;1.40;;;;;;;14.05;67.15;96755.25;10369513;28;20060;-51
2023/04/25 13:31:02;;;;;;;2.15;1.20;;;;;;;13.86;68.19;96734.09;10365679;28;20073;-52
2023/04/25 13:36:01;;;;;;;;;;;;;;;14.27;72.51;96729.34;10367265;28;20045;-52
2023/04/25 13:41:00;;;;;;;5.87;3.07;;;;;;;14.72;74.41;96742.66;10369540;28;20317;-52
2023/04/25 13:45:59;;;;;;;4.40;2.50;;;;;;;15.05;74.24;96729.34;10370443;28;20498;-52
2023/04/25 13:50:58;;;;;;;;;;;;;;;15.41;72.40;96723.69;10369614;28;20488;-51
2023/04/25 13:55:57;;;;;;;3.67;1.50;;;;;;;15.86;69.36;96699.38;10369335;28;19943;-52
2023/04/25 14:00:56;;;;;;;3.00;1.50;;;;;;;16.16;67.48;96693.81;10367812;28;20083;-52
2023/04/25 14:05:55;;;;;;;2.45;1.40;;;;;;;16.58;67.15;96692.97;10368979;28;20052;-52
2023/04/25 14:10:55;;;;;;;1.63;1.30;;;;;;;16.79;62.95;96691.22;10368633;28;20061;-52
2023/04/25 14:15:54;;;;;;;2.63;1.50;;;;;;;16.89;62.76;96685.56;10369079;28;20143;-52
2023/04/25 14:20:53;;;;;;;1.38;1.27;;;;;;;17.19;61.53;96684.25;10366125;28;20064;-52
2023/04/25 14:25:52;;;;;;;1.63;1.15;;;;;;;17.13;58.96;96644.31;10368925;28;20116;-52
2023/04/25 14:30:51;;;;;;;5.00;1.90;;;;;;;17.41;55.56;96682.38;10366512;28;20175;-52
2023/04/25 14:35:50;;;;;;;2.45;2.00;;;;;;;17.40;54.53;96666.72;10370259;28;20021;-52
2023/04/25 14:40:49;;;;;;;1.65;1.40;;;;;;;17.46;54.84;96679.56;10367389;28;20025;-55
2023/04/25 14:45:49;;;;;;;2.00;1.67;;;;;;;17.18;54.33;96659.81;10364154;28;20065;-53
2023/04/25 14:50:48;;;;;;;3.65;2.00;;;;;;;17.08;54.55;96676.88;10363367;28;20131;-52
2023/04/25 14:55:48;;;;;;;4.18;2.42;;;;;;;16.83;57.26;96664.00;10368160;28;20111;-52
2023/04/25 15:00:47;;;;;;;8.00;5.72;;;;;;;16.34;60.06;96651.19;10364639;28;20498;-52
2023/04/25 15:05:46;;;;;;;5.10;3.00;;;;;;;15.95;60.92;96654.53;10366715;28;20497;-52
2023/04/25 15:10:46;;;;;;;7.18;3.17;;;;;;;16.07;59.90;96633.09;10365883;28;20492;-52
2023/04/25 15:15:50;;;;;;;4.20;2.50;;;;;;;15.98;59.55;96630.88;10366681;28;20477;-51
2023/04/25 15:20:51;;;;;;;6.13;2.83;;;;;;;15.87;60.54;96635.66;10366706;28;20478;-52
2023/04/25 15:25:51;;;;;;;3.38;2.50;;;;;;;15.41;58.55;96640.03;10365609;28;20067;-52
2023/04/25 15:30:50;;;;;;;5.30;3.20;;;;;;;15.04;65.15;96644.91;10359206;28;20133;-52
2023/04/25 15:35:49;;;;;;;3.50;2.40;;;;;;;14.87;67.35;96635.97;10361851;28;20524;-51
2023/04/25 15:40:48;;;;;;;4.93;3.30;;;;;;;14.78;69.51;96642.34;10361762;28;20609;-52
2023/04/25 15:45:47;;;;;;;5.07;2.67;;;;;;;14.73;70.37;96632.09;10360603;28;20441;-52
2023/04/25 15:50:46;;;;;;;;;;;;;;;14.73;69.88;96618.16;10293285;28;20364;-51
2023/04/25 15:55:45;;;;;;;6.72;3.88;;;;;;;15.00;69.62;96622.41;10320013;28;19913;-52
2023/04/25 16:00:47;;;;;;;4.93;2.90;;;;;;;14.46;67.28;96495.53;10318750;28;20503;-52
2023/04/25 16:05:46;;;;;;;4.70;2.70;;;;;;;15.31;66.38;96634.31;10317544;28;20160;-52
2023/04/25 16:10:45;;;;;;;6.15;2.97;;;;;;;15.39;65.88;96628.81;10318369;28;20132;-52
2023/04/25 16:15:44;;;;;;;121.07;102.38;;;;;;;15.36;64.07;96639.38;10319362;28;20081;-52
2023/04/25 16:20:43;;;;;;;19.95;17.40;;;;;;;14.96;65.75;96635.63;10320977;28;20669;-51
2023/04/25 16:25:43;;;;;;;;;;;;;;;14.35;74.40;96631.63;10320561;28;20063;-49
2023/04/25 16:30:42;;;;;;;4.93;3.10;;;;;;;14.07;79.13;96615.19;10318085;28;20004;-50
2023/04/25 16:35:40;;;;;;;;;;;;;;;13.87;81.83;96627.13;10315991;28;20033;-50
2023/04/25 16:40:39;;;;;;;22.48;15.98;;;;;;;13.66;83.47;96648.69;10316844;28;19986;-52
2023/04/25 16:45:38;;;;;;;;;;;;;;;13.47;84.89;96637.91;10317377;28;20464;-51
2023/04/25 16:50:37;;;;;;;8.38;5.60;;;;;;;13.49;86.77;96643.94;10318398;28;19932;-50
2023/04/25 16:55:36;;;;;;;;;;;;;;;13.57;88.31;96648.06;10316251;28;20025;-51
2023/04/25 17:00:35;;;;;;;5.60;4.18;;;;;;;13.53;88.94;96654.22;10317865;28;19960;-51
2023/04/25 17:05:35;;;;;;;8.32;5.28;;;;;;;13.51;89.39;96666.44;10318121;28;20041;-51
2023/04/25 17:10:34;;;;;;;7.88;4.75;;;;;;;13.54;90.37;96661.19;10318952;28;20573;-50
2023/04/25 17:15:32;;;;;;;;;;;;;;;13.57;90.62;96670.66;10318740;28;20558;-51
2023/04/25 17:20:31;;;;;;;10.65;7.63;;;;;;;13.55;91.02;96675.91;10293597;28;20330;-52
2023/04/25 17:25:31;;;;;;;;;;;;;;;13.55;91.23;96670.69;10358739;28;20028;-52
2023/04/25 17:30:31;;;;;;;10.55;8.32;;;;;;;13.57;91.21;96676.72;10358936;28;20020;-51
2023/04/25 17:35:30;;;;;;;19.35;13.65;;;;;;;13.51;91.05;96676.88;10358763;28;20580;-51
2023/04/25 17:40:29;;;;;;;19.80;14.50;;;;;;;13.42;90.40;96684.09;10358785;28;20120;-51
2023/04/25 17:45:33;;;;;;;;;;;;;;;13.30;90.26;96698.34;10359475;28;20542;-52
2023/04/25 17:50:32;;;;;;;10.98;8.32;;;;;;;13.22;90.96;96705.53;10357540;28;20024;-50
2023/04/25 17:55:31;;;;;;;;;;;;;;;13.20;91.92;96707.34;10362956;28;20049;-52
2023/04/25 18:00:32;;;;;;;14.57;10.60;;;;;;;13.20;92.33;96722.97;10364179;28;20375;-52
2023/04/25 18:05:31;;;;;;;19.10;13.15;;;;;;;13.19;92.95;96721.22;10357890;28;20152;-52
2023/04/25 18:10:32;;;;;;;16.33;11.13;;;;;;;13.10;92.66;96736.25;10365329;28;20132;-52
2023/04/25 18:15:31;;;;;;;17.50;11.07;;;;;;;12.93;92.93;96746.28;10363405;28;20491;-52
2023/04/25 18:20:30;;;;;;;;;;;;;;;12.79;93.25;96751.84;10362453;28;20411;-52
2023/04/25 18:25:29;;;;;;;12.45;8.52;;;;;;;12.75;92.91;96767.56;10362683;28;19924;-52
2023/04/25 18:30:28;;;;;;;14.35;9.93;;;;;;;12.69;92.80;96769.41;10358481;28;20033;-52
2023/04/25 18:35:27;;;;;;;11.23;7.28;;;;;;;12.67;92.42;96770.34;10368502;28;20120;-52
2023/04/25 18:40:26;;;;;;;;;;;;;;;12.75;92.97;96770.19;10368133;28;20060;-52
2023/04/25 18:45:25;;;;;;;13.45;9.25;;;;;;;12.80;92.73;96778.72;10366637;28;19919;-51
2023/04/25 18:50:25;;;;;;;12.07;7.97;;;;;;;12.87;92.61;96778.50;10365437;28;20059;-52
2023/04/25 18:55:24;;;;;;;15.88;9.30;;;;;;;12.76;92.05;96782.28;10364193;28;20529;-52
2023/04/25 19:00:23;;;;;;;17.75;11.38;;;;;;;12.78;93.16;96781.34;10362918;28;20056;-52
2023/04/25 19:05:22;;;;;;;;;;;;;;;12.84;93.49;96776.00;10363283;28;20477;-52
2023/04/25 19:10:21;;;;;;;13.90;8.50;;;;;;;12.89;93.66;96778.47;10362146;28;19920;-52
2023/04/25 19:15:20;;;;;;;;;;;;;;;12.92;93.72;96778.41;10363148;28;20105;-52
2023/04/25 19:20:19;;;;;;;13.82;7.55;;;;;;;12.89;93.84;96784.53;10362624;28;19912;-52
2023/04/25 19:25:18;;;;;;;10.85;7.90;;;;;;;12.89;93.98;96775.88;10359651;28;20493;-51
2023/04/25 19:30:17;;;;;;;;;;;;;;;12.85;93.43;96774.25;10362075;28;20481;-52
2023/04/25 19:35:16;;;;;;;13.50;9.55;;;;;;;12.75;93.29;96778.00;10362731;28;20324;-52
2023/04/25 19:40:18;;;;;;;15.00;11.15;;;;;;;12.68;93.53;96788.53;10361572;28;20064;-51
2023/04/25 19:45:17;;;;;;;14.60;10.65;;;;;;;12.35;93.14;96753.81;10361476;28;20513;-52
2023/04/25 19:50:16;;;;;;;16.55;11.45;;;;;;;12.50;93.31;96789.00;10355442;28;20140;-51
2023/04/25 19:55:15;;;;;;;;;;;;;;;12.41;93.93;96784.00;10356310;28;20147;-52
2023/04/25 20:00:16;;;;;;;20.70;14.85;;;;;;;12.42;94.04;96776.16;10359450;28;19963;-51
2023/04/25 20:05:16;;;;;;;19.10;13.48;;;;;;;12.14;94.04;96729.13;10356130;28;20072;-52
2023/04/25 20:10:15;;;;;;;19.60;14.57;;;;;;;12.41;94.24;96781.41;10358820;28;20144;-52
2023/04/25 20:15:15;;;;;;;;;;;;;;;12.41;94.13;96776.19;10359200;28;20351;-51
2023/04/25 20:20:16;;;;;;;25.50;19.13;;;;;;;12.41;94.31;96773.59;10354525;28;20015;-52
2023/04/25 20:25:15;;;;;;;28.02;19.27;;;;;;;12.29;94.17;96770.38;10359339;28;20132;-51
2023/04/25 20:30:15;;;;;;;27.45;19.60;;;;;;;12.17;94.34;96770.66;10357340;28;20120;-52
2023/04/25 20:35:14;;;;;;;21.05;13.70;;;;;;;12.12;94.27;96769.91;10356465;28;20542;-52
2023/04/25 20:40:13;;;;;;;;;;;;;;;12.04;94.00;96771.81;10358205;28;20167;-51
2023/04/25 20:45:12;;;;;;;18.73;11.93;;;;;;;11.99;94.27;96771.91;10351467;28;19928;-51
2023/04/25 20:50:11;;;;;;;22.50;15.05;;;;;;;11.91;93.61;96773.84;10351893;28;20141;-52
2023/04/25 20:55:10;;;;;;;13.80;11.05;;;;;;;11.60;94.21;96769.31;10358133;28;20069;-50
2023/04/25 21:00:17;;;;;;;13.43;8.55;;;;;;;11.42;94.23;96767.94;10355961;28;20123;-52
2023/04/25 21:05:16;;;;;;;15.70;10.77;;;;;;;11.36;94.49;96762.88;10356455;28;20072;-52
2023/04/25 21:10:18;;;;;;;15.43;9.32;;;;;;;11.27;93.75;96755.28;10358342;28;20033;-52
2023/04/25 21:15:20;;;;;;;12.65;7.20;;;;;;;10.92;93.68;96707.47;10355802;28;20477;-52
2023/04/25 21:20:20;;;;;;;11.73;7.55;;;;;;;11.15;93.65;96760.69;10356714;28;20362;-51
2023/04/25 21:25:24;;;;;;;12.43;7.55;;;;;;;11.10;93.17;96778.94;10359034;28;20219;-51
2023/04/25 21:30:24;;;;;;;13.75;9.30;;;;;;;10.94;94.17;96790.50;10350450;28;20195;-51
2023/04/25 21:35:23;;;;;;;12.82;8.07;;;;;;;10.79;94.41;96789.00;10367263;28;20132;-51
2023/04/25 21:40:22;;;;;;;13.18;8.43;;;;;;;10.67;94.09;96774.50;10366047;28;20064;-52
2023/04/25 21:45:21;;;;;;;;;;;;;;;10.69;94.27;96782.28;10365434;28;20495;-51
2023/04/25 21:50:21;;;;;;;14.68;9.25;;;;;;;10.70;94.70;96790.00;10365439;28;20347;-49
2023/04/25 21:55:20;;;;;;;17.25;9.73;;;;;;;10.74;94.79;96780.44;10362465;28;20746;-51
2023/04/25 22:00:23;;;;;;;16.40;9.60;;;;;;;10.71;93.81;96764.94;10363215;28;20072;-50
2023/04/25 22:05:25;;;;;;;16.80;7.93;;;;;;;10.79;94.45;96773.44;10366299;28;20110;-52
2023/04/25 22:10:24;;;;;;;14.23;7.97;;;;;;;10.79;93.63;96768.25;10364958;28;20132;-51
2023/04/25 22:15:23;;;;;;;12.90;7.25;;;;;;;10.82;95.24;96778.56;10362563;28;20544;-52
2023/04/25 22:20:26;;;;;;;19.33;11.25;;;;;;;10.79;94.28;96778.63;10359022;28;20509;-51
2023/04/25 22:25:25;;;;;;;14.55;8.35;;;;;;;10.60;95.17;96781.53;10359961;28;20131;-51
2023/04/25 22:30:24;;;;;;;12.75;7.50;;;;;;;10.66;94.49;96772.81;10360437;28;20123;-52
2023/04/25 22:35:23;;;;;;;11.73;7.40;;;;;;;10.71;94.62;96773.56;10365405;28;20063;-50
2023/04/25 22:40:23;;;;;;;14.73;8.73;;;;;;;10.74;95.21;96775.25;10363824;28;20040;-52
2023/04/25 22:45:21;;;;;;;15.02;9.05;;;;;;;10.79;94.06;96773.44;10365091;28;20064;-51
2023/04/25 22:50:20;;;;;;;20.13;14.05;;;;;;;10.81;94.81;96771.66;10363867;28;20056;-52
2023/04/25 22:55:21;;;;;;;22.90;16.48;;;;;;;10.81;94.77;96769.91;10364010;28;20044;-52
2023/04/25 23:00:20;;;;;;;21.20;13.55;;;;;;;10.81;94.88;96761.28;10364534;28;20570;-52
2023/04/25 23:05:19;;;;;;;20.33;12.77;;;;;;;10.70;95.28;96764.06;10363928;28;20078;-51
2023/04/25 23:10:18;;;;;;;22.58;14.32;;;;;;;10.42;95.73;96711.81;10363933;28;20047;-52
2023/04/25 23:15:18;;;;;;;20.38;13.30;;;;;;;10.67;95.08;96748.56;10364894;28;20602;-52
2023/04/25 23:20:17;;;;;;;20.42;13.07;;;;;;;10.67;94.61;96739.91;10362500;28;20583;-51
2023/04/25 23:25:17;;;;;;;24.58;15.18;;;;;;;10.50;95.12;96716.88;10363532;28;20568;-52